sensor_id;sensor_type;location;lat;lon;timestamp;P1;durP1;ratioP1;P2;durP2;ratioP2
34725;SDS011;20951;50.818;4.344;2023-04-25T00:01:33;20.80;;;5.25;;
34725;SDS011;20951;50.818;4.344;2023-04-25T00:04:03;18.52;;;4.97;;
34725;SDS011;20951;50.818;4.344;2023-04-25T00:06:31;19.35;;;5.63;;
34725;SDS011;20951;50.818;4.344;2023-04-25T00:09:01;21.25;;;5.72;;
34725;SDS011;20951;50.818;4.344;2023-04-25T00:11:32;24.92;;;5.38;;
34725;SDS011;20951;50.818;4.344;2023-04-25T00:14:02;21.85;;;5.35;;
34725;SDS011;20951;50.818;4.344;2023-04-25T00:16:31;20.60;;;5.10;;
34725;SDS011;20951;50.818;4.344;2023-04-25T00:18:59;18.73;;;4.93;;
34725;SDS011;20951;50.818;4.344;2023-04-25T00:21:30;24.42;;;5.55;;
34725;SDS011;20951;50.818;4.344;2023-04-25T00:23:59;22.05;;;5.43;;
34725;SDS011;20951;50.818;4.344;2023-04-25T00:26:28;19.88;;;5.47;;
34725;SDS011;20951;50.818;4.344;2023-04-25T00:29:03;24.15;;;5.28;;
34725;SDS011;20951;50.818;4.344;2023-04-25T00:31:31;21.15;;;5.82;;
34725;SDS011;20951;50.818;4.344;2023-04-25T00:33:59;20.58;;;5.25;;
34725;SDS011;20951;50.818;4.344;2023-04-25T00:36:35;23.05;;;5.75;;
34725;SDS011;20951;50.818;4.344;2023-04-25T00:39:09;20.50;;;5.25;;
34725;SDS011;20951;50.818;4.344;2023-04-25T00:41:34;19.25;;;5.60;;
34725;SDS011;20951;50.818;4.344;2023-04-25T00:44:04;20.58;;;5.40;;
34725;SDS011;20951;50.818;4.344;2023-04-25T00:46:42;20.88;;;5.65;;
34725;SDS011;20951;50.818;4.344;2023-04-25T00:49:10;20.70;;;5.38;;
34725;SDS011;20951;50.818;4.344;2023-04-25T00:51:41;18.27;;;5.55;;
34725;SDS011;20951;50.818;4.344;2023-04-25T00:54:14;27.88;;;6.13;;
34725;SDS011;20951;50.818;4.344;2023-04-25T00:56:44;19.85;;;5.93;;
34725;SDS011;20951;50.818;4.344;2023-04-25T00:59:10;23.45;;;5.80;;
34725;SDS011;20951;50.818;4.344;2023-04-25T01:01:36;20.70;;;5.80;;
34725;SDS011;20951;50.818;4.344;2023-04-25T01:04:11;24.60;;;6.43;;
34725;SDS011;20951;50.818;4.344;2023-04-25T01:06:47;23.17;;;6.13;;
34725;SDS011;20951;50.818;4.344;2023-04-25T01:09:16;22.23;;;5.97;;
34725;SDS011;20951;50.818;4.344;2023-04-25T01:11:47;21.80;;;6.60;;
34725;SDS011;20951;50.818;4.344;2023-04-25T01:14:15;17.73;;;6.15;;
34725;SDS011;20951;50.818;4.344;2023-04-25T01:16:49;27.80;;;6.47;;
34725;SDS011;20951;50.818;4.344;2023-04-25T01:19:25;24.65;;;6.55;;
34725;SDS011;20951;50.818;4.344;2023-04-25T01:21:51;22.95;;;6.75;;
34725;SDS011;20951;50.818;4.344;2023-04-25T01:24:23;24.05;;;6.88;;
34725;SDS011;20951;50.818;4.344;2023-04-25T01:27:00;24.88;;;6.50;;
34725;SDS011;20951;50.818;4.344;2023-04-25T01:29:37;23.90;;;6.30;;
34725;SDS011;20951;50.818;4.344;2023-04-25T01:32:12;26.35;;;6.78;;
34725;SDS011;20951;50.818;4.344;2023-04-25T01:34:47;27.13;;;6.40;;
34725;SDS011;20951;50.818;4.344;2023-04-25T01:37:23;26.77;;;6.55;;
34725;SDS011;20951;50.818;4.344;2023-04-25T01:39:52;24.85;;;6.65;;
34725;SDS011;20951;50.818;4.344;2023-04-25T01:42:29;28.88;;;6.72;;
34725;SDS011;20951;50.818;4.344;2023-04-25T01:45:07;25.88;;;6.80;;
34725;SDS011;20951;50.818;4.344;2023-04-25T01:47:37;24.10;;;6.93;;
34725;SDS011;20951;50.818;4.344;2023-04-25T01:50:15;27.60;;;6.93;;
34725;SDS011;20951;50.818;4.344;2023-04-25T01:52:46;23.33;;;6.47;;
34725;SDS011;20951;50.818;4.344;2023-04-25T01:55:22;28.63;;;6.60;;
34725;SDS011;20951;50.818;4.344;2023-04-25T01:57:58;20.75;;;5.88;;
34725;SDS011;20951;50.818;4.344;2023-04-25T02:00:35;23.05;;;6.30;;
34725;SDS011;20951;50.818;4.344;2023-04-25T02:03:10;24.73;;;6.30;;
34725;SDS011;20951;50.818;4.344;2023-04-25T02:05:40;21.40;;;6.13;;
34725;SDS011;20951;50.818;4.344;2023-04-25T02:08:19;24.83;;;6.47;;
34725;SDS011;20951;50.818;4.344;2023-04-25T02:10:55;22.20;;;6.07;;
34725;SDS011;20951;50.818;4.344;2023-04-25T02:13:31;24.42;;;6.82;;
34725;SDS011;20951;50.818;4.344;2023-04-25T02:15:57;25.05;;;7.18;;
34725;SDS011;20951;50.818;4.344;2023-04-25T02:18:23;22.67;;;6.40;;
34725;SDS011;20951;50.818;4.344;2023-04-25T02:20:52;22.95;;;6.57;;
34725;SDS011;20951;50.818;4.344;2023-04-25T02:23:20;26.30;;;6.35;;
34725;SDS011;20951;50.818;4.344;2023-04-25T02:25:46;23.60;;;6.25;;
34725;SDS011;20951;50.818;4.344;2023-04-25T02:28:12;25.85;;;6.82;;
34725;SDS011;20951;50.818;4.344;2023-04-25T02:30:44;21.88;;;7.03;;
34725;SDS011;20951;50.818;4.344;2023-04-25T02:33:10;24.67;;;6.57;;
34725;SDS011;20951;50.818;4.344;2023-04-25T02:35:46;21.25;;;6.45;;
34725;SDS011;20951;50.818;4.344;2023-04-25T02:38:18;24.08;;;6.90;;
34725;SDS011;20951;50.818;4.344;2023-04-25T02:40:46;24.45;;;6.25;;
34725;SDS011;20951;50.818;4.344;2023-04-25T02:43:12;29.70;;;7.13;;
34725;SDS011;20951;50.818;4.344;2023-04-25T02:45:41;29.55;;;6.45;;
34725;SDS011;20951;50.818;4.344;2023-04-25T02:48:17;24.08;;;6.20;;
34725;SDS011;20951;50.818;4.344;2023-04-25T02:50:43;28.13;;;6.68;;
34725;SDS011;20951;50.818;4.344;2023-04-25T02:53:11;21.90;;;6.63;;
34725;SDS011;20951;50.818;4.344;2023-04-25T02:55:46;27.00;;;6.43;;
34725;SDS011;20951;50.818;4.344;2023-04-25T02:58:12;29.33;;;7.20;;
34725;SDS011;20951;50.818;4.344;2023-04-25T03:00:43;23.45;;;7.13;;
34725;SDS011;20951;50.818;4.344;2023-04-25T03:03:14;23.98;;;6.28;;
34725;SDS011;20951;50.818;4.344;2023-04-25T03:05:43;22.70;;;6.72;;
34725;SDS011;20951;50.818;4.344;2023-04-25T03:08:22;24.70;;;6.60;;
34725;SDS011;20951;50.818;4.344;2023-04-25T03:11:02;24.40;;;7.20;;
34725;SDS011;20951;50.818;4.344;2023-04-25T03:13:30;29.05;;;7.03;;
34725;SDS011;20951;50.818;4.344;2023-04-25T03:16:06;27.15;;;6.80;;
34725;SDS011;20951;50.818;4.344;2023-04-25T03:18:47;27.17;;;6.55;;
34725;SDS011;20951;50.818;4.344;2023-04-25T03:21:18;26.48;;;7.03;;
34725;SDS011;20951;50.818;4.344;2023-04-25T03:23:56;26.83;;;6.50;;
34725;SDS011;20951;50.818;4.344;2023-04-25T03:26:28;25.10;;;7.13;;
34725;SDS011;20951;50.818;4.344;2023-04-25T03:29:04;27.55;;;6.82;;
34725;SDS011;20951;50.818;4.344;2023-04-25T03:31:42;26.70;;;7.28;;
34725;SDS011;20951;50.818;4.344;2023-04-25T03:34:10;24.17;;;6.57;;
34725;SDS011;20951;50.818;4.344;2023-04-25T03:36:47;25.13;;;6.82;;
34725;SDS011;20951;50.818;4.344;2023-04-25T03:39:28;24.85;;;6.95;;
34725;SDS011;20951;50.818;4.344;2023-04-25T03:42:05;23.98;;;6.30;;
34725;SDS011;20951;50.818;4.344;2023-04-25T03:44:38;26.08;;;7.18;;
34725;SDS011;20951;50.818;4.344;2023-04-25T03:47:17;31.60;;;7.15;;
34725;SDS011;20951;50.818;4.344;2023-04-25T03:49:58;23.75;;;6.63;;
34725;SDS011;20951;50.818;4.344;2023-04-25T03:52:26;27.55;;;7.10;;
34725;SDS011;20951;50.818;4.344;2023-04-25T03:54:59;22.85;;;6.55;;
34725;SDS011;20951;50.818;4.344;2023-04-25T03:57:33;26.55;;;6.20;;
34725;SDS011;20951;50.818;4.344;2023-04-25T04:00:24;28.50;;;6.47;;
34725;SDS011;20951;50.818;4.344;2023-04-25T04:03:00;26.95;;;6.38;;
34725;SDS011;20951;50.818;4.344;2023-04-25T04:05:37;22.55;;;5.97;;
34725;SDS011;20951;50.818;4.344;2023-04-25T04:08:08;23.13;;;5.90;;
34725;SDS011;20951;50.818;4.344;2023-04-25T04:10:38;21.25;;;6.20;;
34725;SDS011;20951;50.818;4.344;2023-04-25T04:13:20;22.52;;;5.90;;
34725;SDS011;20951;50.818;4.344;2023-04-25T04:15:46;19.27;;;5.30;;
34725;SDS011;20951;50.818;4.344;2023-04-25T04:18:22;21.08;;;5.60;;
34725;SDS011;20951;50.818;4.344;2023-04-25T04:20:51;22.40;;;5.93;;
34725;SDS011;20951;50.818;4.344;2023-04-25T04:23:23;24.42;;;5.65;;
34725;SDS011;20951;50.818;4.344;2023-04-25T04:26:22;23.08;;;5.68;;
34725;SDS011;20951;50.818;4.344;2023-04-25T04:28:51;20.38;;;5.03;;
34725;SDS011;20951;50.818;4.344;2023-04-25T04:31:21;21.88;;;5.50;;
34725;SDS011;20951;50.818;4.344;2023-04-25T04:33:55;22.88;;;5.30;;
34725;SDS011;20951;50.818;4.344;2023-04-25T04:36:31;24.77;;;5.40;;
34725;SDS011;20951;50.818;4.344;2023-04-25T04:39:00;19.42;;;4.70;;
34725;SDS011;20951;50.818;4.344;2023-04-25T04:41:29;19.23;;;5.07;;
34725;SDS011;20951;50.818;4.344;2023-04-25T04:44:09;25.75;;;6.43;;
34725;SDS011;20951;50.818;4.344;2023-04-25T04:46:46;22.02;;;5.78;;
34725;SDS011;20951;50.818;4.344;2023-04-25T04:49:17;15.85;;;4.90;;
34725;SDS011;20951;50.818;4.344;2023-04-25T04:52:18;23.42;;;5.63;;
34725;SDS011;20951;50.818;4.344;2023-04-25T04:54:57;22.48;;;5.90;;
34725;SDS011;20951;50.818;4.344;2023-04-25T04:57:28;21.08;;;6.45;;
34725;SDS011;20951;50.818;4.344;2023-04-25T05:00:13;31.10;;;7.18;;
34725;SDS011;20951;50.818;4.344;2023-04-25T05:02:52;24.52;;;6.63;;
34725;SDS011;20951;50.818;4.344;2023-04-25T05:05:26;26.85;;;8.00;;
34725;SDS011;20951;50.818;4.344;2023-04-25T05:08:05;21.10;;;7.18;;
34725;SDS011;20951;50.818;4.344;2023-04-25T05:10:39;26.95;;;6.70;;
34725;SDS011;20951;50.818;4.344;2023-04-25T05:13:52;28.45;;;7.57;;
34725;SDS011;20951;50.818;4.344;2023-04-25T05:16:33;22.23;;;7.50;;
34725;SDS011;20951;50.818;4.344;2023-04-25T05:19:13;23.02;;;6.60;;
34725;SDS011;20951;50.818;4.344;2023-04-25T05:21:56;21.65;;;6.75;;
34725;SDS011;20951;50.818;4.344;2023-04-25T05:24:38;16.77;;;5.50;;
34725;SDS011;20951;50.818;4.344;2023-04-25T05:27:19;19.65;;;6.30;;
34725;SDS011;20951;50.818;4.344;2023-04-25T05:30:02;19.50;;;6.63;;
34725;SDS011;20951;50.818;4.344;2023-04-25T05:32:44;20.67;;;7.57;;
34725;SDS011;20951;50.818;4.344;2023-04-25T05:35:24;22.33;;;8.07;;
34725;SDS011;20951;50.818;4.344;2023-04-25T05:38:08;29.58;;;8.70;;
34725;SDS011;20951;50.818;4.344;2023-04-25T05:40:51;28.00;;;8.77;;
34725;SDS011;20951;50.818;4.344;2023-04-25T05:43:32;23.00;;;7.97;;
34725;SDS011;20951;50.818;4.344;2023-04-25T05:46:16;22.65;;;7.82;;
34725;SDS011;20951;50.818;4.344;2023-04-25T05:48:59;22.10;;;7.80;;
34725;SDS011;20951;50.818;4.344;2023-04-25T05:51:42;26.63;;;7.40;;
34725;SDS011;20951;50.818;4.344;2023-04-25T05:54:23;20.15;;;5.80;;
34725;SDS011;20951;50.818;4.344;2023-04-25T05:57:06;22.10;;;6.30;;
34725;SDS011;20951;50.818;4.344;2023-04-25T05:59:59;18.23;;;6.18;;
34725;SDS011;20951;50.818;4.344;2023-04-25T06:02:41;19.38;;;5.63;;
34725;SDS011;20951;50.818;4.344;2023-04-25T06:05:23;20.08;;;5.47;;
34725;SDS011;20951;50.818;4.344;2023-04-25T06:08:05;24.15;;;5.68;;
34725;SDS011;20951;50.818;4.344;2023-04-25T06:10:45;19.73;;;5.88;;
34725;SDS011;20951;50.818;4.344;2023-04-25T06:13:28;31.85;;;6.53;;
34725;SDS011;20951;50.818;4.344;2023-04-25T06:16:13;26.63;;;7.50;;
34725;SDS011;20951;50.818;4.344;2023-04-25T06:18:52;24.27;;;7.10;;
34725;SDS011;20951;50.818;4.344;2023-04-25T06:21:25;23.80;;;6.90;;
34725;SDS011;20951;50.818;4.344;2023-04-25T06:23:58;24.10;;;8.00;;
34725;SDS011;20951;50.818;4.344;2023-04-25T06:26:28;20.65;;;7.80;;
34725;SDS011;20951;50.818;4.344;2023-04-25T06:29:01;24.00;;;7.70;;
34725;SDS011;20951;50.818;4.344;2023-04-25T06:31:34;25.98;;;8.82;;
34725;SDS011;20951;50.818;4.344;2023-04-25T06:34:05;24.75;;;8.02;;
34725;SDS011;20951;50.818;4.344;2023-04-25T06:36:35;23.92;;;8.82;;
34725;SDS011;20951;50.818;4.344;2023-04-25T06:39:07;19.65;;;7.60;;
34725;SDS011;20951;50.818;4.344;2023-04-25T06:41:38;19.45;;;6.70;;
34725;SDS011;20951;50.818;4.344;2023-04-25T06:44:09;25.90;;;7.05;;
34725;SDS011;20951;50.818;4.344;2023-04-25T06:46:42;16.33;;;5.63;;
34725;SDS011;20951;50.818;4.344;2023-04-25T06:49:14;20.02;;;6.20;;
34725;SDS011;20951;50.818;4.344;2023-04-25T06:51:45;18.17;;;5.32;;
34725;SDS011;20951;50.818;4.344;2023-04-25T06:54:18;17.40;;;5.00;;
34725;SDS011;20951;50.818;4.344;2023-04-25T06:56:50;18.60;;;5.18;;
34725;SDS011;20951;50.818;4.344;2023-04-25T06:59:20;24.08;;;6.07;;
34725;SDS011;20951;50.818;4.344;2023-04-25T07:01:55;22.00;;;5.00;;
34725;SDS011;20951;50.818;4.344;2023-04-25T07:04:28;20.55;;;5.72;;
34725;SDS011;20951;50.818;4.344;2023-04-25T07:06:55;24.23;;;6.25;;
34725;SDS011;20951;50.818;4.344;2023-04-25T07:09:22;23.15;;;6.25;;
34725;SDS011;20951;50.818;4.344;2023-04-25T07:11:51;21.48;;;5.43;;
34725;SDS011;20951;50.818;4.344;2023-04-25T07:14:17;20.20;;;5.22;;
34725;SDS011;20951;50.818;4.344;2023-04-25T07:16:42;22.35;;;4.80;;
34725;SDS011;20951;50.818;4.344;2023-04-25T07:19:08;19.40;;;4.55;;
34725;SDS011;20951;50.818;4.344;2023-04-25T07:21:34;19.17;;;4.35;;
34725;SDS011;20951;50.818;4.344;2023-04-25T07:24:01;18.65;;;4.50;;
34725;SDS011;20951;50.818;4.344;2023-04-25T07:26:27;19.27;;;5.20;;
34725;SDS011;20951;50.818;4.344;2023-04-25T07:28:53;12.93;;;4.20;;
34725;SDS011;20951;50.818;4.344;2023-04-25T07:31:19;18.30;;;4.25;;
34725;SDS011;20951;50.818;4.344;2023-04-25T07:33:46;19.77;;;4.90;;
34725;SDS011;20951;50.818;4.344;2023-04-25T07:36:15;16.67;;;4.57;;
34725;SDS011;20951;50.818;4.344;2023-04-25T07:38:41;20.77;;;4.57;;
34725;SDS011;20951;50.818;4.344;2023-04-25T07:41:07;19.83;;;4.22;;
34725;SDS011;20951;50.818;4.344;2023-04-25T07:43:33;18.77;;;4.53;;
34725;SDS011;20951;50.818;4.344;2023-04-25T07:45:59;20.65;;;4.50;;
34725;SDS011;20951;50.818;4.344;2023-04-25T07:48:25;20.33;;;4.40;;
34725;SDS011;20951;50.818;4.344;2023-04-25T07:50:51;15.52;;;4.22;;
34725;SDS011;20951;50.818;4.344;2023-04-25T07:53:23;19.25;;;4.25;;
34725;SDS011;20951;50.818;4.344;2023-04-25T07:56:01;15.30;;;3.50;;
34725;SDS011;20951;50.818;4.344;2023-04-25T07:58:31;17.48;;;4.05;;
34725;SDS011;20951;50.818;4.344;2023-04-25T08:01:03;13.82;;;3.65;;
34725;SDS011;20951;50.818;4.344;2023-04-25T08:03:34;16.52;;;3.65;;
34725;SDS011;20951;50.818;4.344;2023-04-25T08:06:07;13.68;;;4.05;;
34725;SDS011;20951;50.818;4.344;2023-04-25T08:08:37;15.20;;;3.70;;
34725;SDS011;20951;50.818;4.344;2023-04-25T08:11:09;13.90;;;3.97;;
34725;SDS011;20951;50.818;4.344;2023-04-25T08:13:40;16.65;;;4.18;;
34725;SDS011;20951;50.818;4.344;2023-04-25T08:16:11;16.67;;;3.47;;
34725;SDS011;20951;50.818;4.344;2023-04-25T08:18:42;13.32;;;3.63;;
34725;SDS011;20951;50.818;4.344;2023-04-25T08:21:13;11.73;;;3.50;;
34725;SDS011;20951;50.818;4.344;2023-04-25T08:23:44;12.57;;;3.75;;
34725;SDS011;20951;50.818;4.344;2023-04-25T08:26:16;13.93;;;3.85;;
34725;SDS011;20951;50.818;4.344;2023-04-25T08:28:47;18.30;;;3.95;;
34725;SDS011;20951;50.818;4.344;2023-04-25T08:31:17;13.70;;;3.40;;
34725;SDS011;20951;50.818;4.344;2023-04-25T08:33:48;15.88;;;3.40;;
34725;SDS011;20951;50.818;4.344;2023-04-25T08:36:18;14.52;;;3.55;;
34725;SDS011;20951;50.818;4.344;2023-04-25T08:38:49;13.30;;;3.67;;
34725;SDS011;20951;50.818;4.344;2023-04-25T08:41:20;14.73;;;3.55;;
34725;SDS011;20951;50.818;4.344;2023-04-25T08:43:51;16.02;;;3.30;;
34725;SDS011;20951;50.818;4.344;2023-04-25T08:46:25;13.05;;;3.03;;
34725;SDS011;20951;50.818;4.344;2023-04-25T08:49:02;8.85;;;2.70;;
34725;SDS011;20951;50.818;4.344;2023-04-25T08:51:34;12.63;;;2.67;;
34725;SDS011;20951;50.818;4.344;2023-04-25T08:54:13;10.38;;;3.03;;
34725;SDS011;20951;50.818;4.344;2023-04-25T08:56:40;9.60;;;2.70;;
34725;SDS011;20951;50.818;4.344;2023-04-25T08:59:13;9.15;;;2.40;;
34725;SDS011;20951;50.818;4.344;2023-04-25T09:01:43;10.35;;;2.75;;
34725;SDS011;20951;50.818;4.344;2023-04-25T09:04:12;11.00;;;3.42;;
34725;SDS011;20951;50.818;4.344;2023-04-25T09:06:38;13.80;;;2.67;;
34725;SDS011;20951;50.818;4.344;2023-04-25T09:09:05;14.95;;;3.00;;
34725;SDS011;20951;50.818;4.344;2023-04-25T09:11:34;14.93;;;3.28;;
34725;SDS011;20951;50.818;4.344;2023-04-25T09:14:14;12.57;;;2.90;;
34725;SDS011;20951;50.818;4.344;2023-04-25T09:19:28;13.00;;;3.10;;
34725;SDS011;20951;50.818;4.344;2023-04-25T09:21:56;12.65;;;2.78;;
34725;SDS011;20951;50.818;4.344;2023-04-25T09:27:11;11.18;;;2.63;;
34725;SDS011;20951;50.818;4.344;2023-04-25T09:29:43;11.25;;;2.50;;
34725;SDS011;20951;50.818;4.344;2023-04-25T09:32:19;11.57;;;2.40;;
34725;SDS011;20951;50.818;4.344;2023-04-25T09:34:54;8.85;;;2.30;;
34725;SDS011;20951;50.818;4.344;2023-04-25T09:37:27;10.60;;;2.75;;
34725;SDS011;20951;50.818;4.344;2023-04-25T09:40:03;9.90;;;2.50;;
34725;SDS011;20951;50.818;4.344;2023-04-25T09:42:31;10.90;;;2.60;;
34725;SDS011;20951;50.818;4.344;2023-04-25T09:45:03;11.80;;;2.67;;
34725;SDS011;20951;50.818;4.344;2023-04-25T09:47:29;9.57;;;2.38;;
34725;SDS011;20951;50.818;4.344;2023-04-25T09:49:56;12.82;;;2.97;;
34725;SDS011;20951;50.818;4.344;2023-04-25T09:52:23;13.55;;;2.75;;
34725;SDS011;20951;50.818;4.344;2023-04-25T09:54:50;13.48;;;3.22;;
34725;SDS011;20951;50.818;4.344;2023-04-25T09:57:17;9.10;;;2.55;;
34725;SDS011;20951;50.818;4.344;2023-04-25T09:59:46;10.10;;;2.60;;
34725;SDS011;20951;50.818;4.344;2023-04-25T10:02:13;11.18;;;2.33;;
34725;SDS011;20951;50.818;4.344;2023-04-25T10:04:41;12.23;;;2.47;;
34725;SDS011;20951;50.818;4.344;2023-04-25T10:07:09;8.18;;;2.38;;
34725;SDS011;20951;50.818;4.344;2023-04-25T10:09:37;8.65;;;2.30;;
34725;SDS011;20951;50.818;4.344;2023-04-25T10:12:05;8.13;;;2.67;;
34725;SDS011;20951;50.818;4.344;2023-04-25T10:14:32;8.52;;;2.40;;
34725;SDS011;20951;50.818;4.344;2023-04-25T10:17:10;6.78;;;2.35;;
34725;SDS011;20951;50.818;4.344;2023-04-25T10:19:39;7.88;;;1.92;;
34725;SDS011;20951;50.818;4.344;2023-04-25T10:24:53;6.55;;;1.63;;
34725;SDS011;20951;50.818;4.344;2023-04-25T10:27:21;6.30;;;1.48;;
34725;SDS011;20951;50.818;4.344;2023-04-25T10:30:04;5.68;;;1.63;;
34725;SDS011;20951;50.818;4.344;2023-04-25T10:32:36;6.18;;;1.48;;
34725;SDS011;20951;50.818;4.344;2023-04-25T10:35:15;6.20;;;1.65;;
34725;SDS011;20951;50.818;4.344;2023-04-25T10:40:39;6.90;;;1.80;;
34725;SDS011;20951;50.818;4.344;2023-04-25T10:45:56;6.03;;;1.48;;
34725;SDS011;20951;50.818;4.344;2023-04-25T10:48:31;7.03;;;2.08;;
34725;SDS011;20951;50.818;4.344;2023-04-25T10:51:09;6.00;;;1.65;;
34725;SDS011;20951;50.818;4.344;2023-04-25T10:53:36;8.13;;;1.80;;
34725;SDS011;20951;50.818;4.344;2023-04-25T10:56:11;6.13;;;1.67;;
34725;SDS011;20951;50.818;4.344;2023-04-25T10:58:45;8.50;;;2.38;;
34725;SDS011;20951;50.818;4.344;2023-04-25T11:01:19;7.40;;;1.80;;
34725;SDS011;20951;50.818;4.344;2023-04-25T11:03:46;7.68;;;2.17;;
34725;SDS011;20951;50.818;4.344;2023-04-25T11:09:03;10.77;;;2.60;;
34725;SDS011;20951;50.818;4.344;2023-04-25T11:11:38;13.32;;;2.50;;
34725;SDS011;20951;50.818;4.344;2023-04-25T11:14:04;12.77;;;2.42;;
34725;SDS011;20951;50.818;4.344;2023-04-25T11:16:30;14.52;;;3.22;;
34725;SDS011;20951;50.818;4.344;2023-04-25T11:18:57;11.00;;;2.47;;
34725;SDS011;20951;50.818;4.344;2023-04-25T11:21:25;12.30;;;2.30;;
34725;SDS011;20951;50.818;4.344;2023-04-25T11:23:53;8.52;;;2.42;;
34725;SDS011;20951;50.818;4.344;2023-04-25T11:26:21;10.27;;;2.33;;
34725;SDS011;20951;50.818;4.344;2023-04-25T11:28:48;10.43;;;2.00;;
34725;SDS011;20951;50.818;4.344;2023-04-25T11:31:20;9.73;;;2.45;;
34725;SDS011;20951;50.818;4.344;2023-04-25T11:33:47;10.00;;;2.30;;
34725;SDS011;20951;50.818;4.344;2023-04-25T11:36:13;11.68;;;2.25;;
34725;SDS011;20951;50.818;4.344;2023-04-25T11:38:39;9.27;;;2.05;;
34725;SDS011;20951;50.818;4.344;2023-04-25T11:41:05;7.82;;;1.88;;
34725;SDS011;20951;50.818;4.344;2023-04-25T11:43:31;7.03;;;1.67;;
34725;SDS011;20951;50.818;4.344;2023-04-25T11:45:57;9.00;;;2.10;;
34725;SDS011;20951;50.818;4.344;2023-04-25T11:48:23;9.23;;;1.90;;
34725;SDS011;20951;50.818;4.344;2023-04-25T11:50:49;9.30;;;1.85;;
34725;SDS011;20951;50.818;4.344;2023-04-25T11:53:17;11.13;;;2.38;;
34725;SDS011;20951;50.818;4.344;2023-04-25T11:55:43;9.93;;;2.15;;
34725;SDS011;20951;50.818;4.344;2023-04-25T11:58:09;7.95;;;2.00;;
34725;SDS011;20951;50.818;4.344;2023-04-25T12:00:36;9.05;;;2.10;;
34725;SDS011;20951;50.818;4.344;2023-04-25T12:03:02;8.35;;;2.00;;
34725;SDS011;20951;50.818;4.344;2023-04-25T12:05:29;6.18;;;1.52;;
34725;SDS011;20951;50.818;4.344;2023-04-25T12:08:08;6.28;;;1.67;;
34725;SDS011;20951;50.818;4.344;2023-04-25T12:10:37;8.23;;;1.52;;
34725;SDS011;20951;50.818;4.344;2023-04-25T12:13:24;6.50;;;2.00;;
34725;SDS011;20951;50.818;4.344;2023-04-25T12:15:56;6.63;;;1.67;;
34725;SDS011;20951;50.818;4.344;2023-04-25T12:18:25;10.85;;;2.30;;
34725;SDS011;20951;50.818;4.344;2023-04-25T12:20:55;8.77;;;1.92;;
34725;SDS011;20951;50.818;4.344;2023-04-25T12:23:25;7.82;;;2.17;;
34725;SDS011;20951;50.818;4.344;2023-04-25T12:25:55;6.60;;;1.83;;
34725;SDS011;20951;50.818;4.344;2023-04-25T12:28:21;8.60;;;2.17;;
34725;SDS011;20951;50.818;4.344;2023-04-25T12:33:18;9.55;;;2.15;;
34725;SDS011;20951;50.818;4.344;2023-04-25T12:35:44;7.55;;;2.28;;
34725;SDS011;20951;50.818;4.344;2023-04-25T12:38:10;7.60;;;1.90;;
34725;SDS011;20951;50.818;4.344;2023-04-25T12:40:48;6.78;;;1.80;;
34725;SDS011;20951;50.818;4.344;2023-04-25T12:43:18;4.82;;;1.33;;
34725;SDS011;20951;50.818;4.344;2023-04-25T12:45:44;5.15;;;1.30;;
34725;SDS011;20951;50.818;4.344;2023-04-25T12:48:15;7.35;;;1.67;;
34725;SDS011;20951;50.818;4.344;2023-04-25T12:50:41;6.97;;;2.10;;
34725;SDS011;20951;50.818;4.344;2023-04-25T12:53:07;5.63;;;1.65;;
34725;SDS011;20951;50.818;4.344;2023-04-25T12:55:33;6.45;;;1.42;;
34725;SDS011;20951;50.818;4.344;2023-04-25T12:57:59;6.30;;;1.48;;
34725;SDS011;20951;50.818;4.344;2023-04-25T13:00:25;6.45;;;1.55;;
34725;SDS011;20951;50.818;4.344;2023-04-25T13:02:51;7.28;;;1.73;;
34725;SDS011;20951;50.818;4.344;2023-04-25T13:05:17;6.65;;;2.00;;
34725;SDS011;20951;50.818;4.344;2023-04-25T13:07:43;5.15;;;1.30;;
34725;SDS011;20951;50.818;4.344;2023-04-25T13:10:12;5.13;;;1.38;;
34725;SDS011;20951;50.818;4.344;2023-04-25T13:12:38;6.60;;;1.70;;
34725;SDS011;20951;50.818;4.344;2023-04-25T13:15:04;7.63;;;1.52;;
34725;SDS011;20951;50.818;4.344;2023-04-25T13:17:34;5.22;;;1.58;;
34725;SDS011;20951;50.818;4.344;2023-04-25T13:20:00;8.90;;;1.45;;
34725;SDS011;20951;50.818;4.344;2023-04-25T13:22:26;6.90;;;1.92;;
34725;SDS011;20951;50.818;4.344;2023-04-25T13:24:52;8.23;;;1.95;;
34725;SDS011;20951;50.818;4.344;2023-04-25T13:27:18;5.70;;;1.70;;
34725;SDS011;20951;50.818;4.344;2023-04-25T13:29:45;8.48;;;1.90;;
34725;SDS011;20951;50.818;4.344;2023-04-25T13:32:11;8.45;;;1.50;;
34725;SDS011;20951;50.818;4.344;2023-04-25T13:34:37;6.63;;;1.55;;
34725;SDS011;20951;50.818;4.344;2023-04-25T13:37:03;7.38;;;1.45;;
34725;SDS011;20951;50.818;4.344;2023-04-25T13:39:30;7.25;;;1.70;;
34725;SDS011;20951;50.818;4.344;2023-04-25T13:41:56;6.75;;;1.42;;
34725;SDS011;20951;50.818;4.344;2023-04-25T13:44:21;6.60;;;1.50;;
34725;SDS011;20951;50.818;4.344;2023-04-25T13:46:47;5.00;;;1.02;;
34725;SDS011;20951;50.818;4.344;2023-04-25T13:49:13;6.20;;;1.52;;
34725;SDS011;20951;50.818;4.344;2023-04-25T13:51:42;5.28;;;1.67;;
34725;SDS011;20951;50.818;4.344;2023-04-25T13:54:08;6.32;;;1.67;;
34725;SDS011;20951;50.818;4.344;2023-04-25T13:56:34;6.25;;;1.73;;
34725;SDS011;20951;50.818;4.344;2023-04-25T13:59:01;7.82;;;1.45;;
34725;SDS011;20951;50.818;4.344;2023-04-25T14:01:26;5.05;;;1.17;;
34725;SDS011;20951;50.818;4.344;2023-04-25T14:03:53;6.57;;;1.90;;
34725;SDS011;20951;50.818;4.344;2023-04-25T14:06:20;6.15;;;1.60;;
34725;SDS011;20951;50.818;4.344;2023-04-25T14:08:49;8.40;;;1.92;;
34725;SDS011;20951;50.818;4.344;2023-04-25T14:11:15;8.15;;;1.70;;
34725;SDS011;20951;50.818;4.344;2023-04-25T14:13:43;8.05;;;1.90;;
34725;SDS011;20951;50.818;4.344;2023-04-25T14:16:09;8.43;;;1.30;;
34725;SDS011;20951;50.818;4.344;2023-04-25T14:18:35;8.73;;;1.80;;
34725;SDS011;20951;50.818;4.344;2023-04-25T14:21:01;4.28;;;1.63;;
34725;SDS011;20951;50.818;4.344;2023-04-25T14:23:30;5.53;;;1.55;;
34725;SDS011;20951;50.818;4.344;2023-04-25T14:25:56;7.07;;;1.55;;
34725;SDS011;20951;50.818;4.344;2023-04-25T14:28:22;7.10;;;1.60;;
34725;SDS011;20951;50.818;4.344;2023-04-25T14:30:49;9.70;;;1.70;;
34725;SDS011;20951;50.818;4.344;2023-04-25T14:33:15;6.95;;;1.58;;
34725;SDS011;20951;50.818;4.344;2023-04-25T14:35:41;6.97;;;1.85;;
34725;SDS011;20951;50.818;4.344;2023-04-25T14:38:07;7.30;;;1.77;;
34725;SDS011;20951;50.818;4.344;2023-04-25T14:40:33;8.65;;;2.05;;
34725;SDS011;20951;50.818;4.344;2023-04-25T14:42:59;10.80;;;1.40;;
34725;SDS011;20951;50.818;4.344;2023-04-25T14:45:25;8.15;;;1.80;;
34725;SDS011;20951;50.818;4.344;2023-04-25T14:47:51;5.57;;;1.60;;
34725;SDS011;20951;50.818;4.344;2023-04-25T14:50:17;6.32;;;1.55;;
34725;SDS011;20951;50.818;4.344;2023-04-25T14:52:43;4.93;;;1.65;;
34725;SDS011;20951;50.818;4.344;2023-04-25T14:55:10;8.32;;;1.83;;
34725;SDS011;20951;50.818;4.344;2023-04-25T14:57:36;9.45;;;2.95;;
34725;SDS011;20951;50.818;4.344;2023-04-25T15:00:04;6.68;;;1.75;;
34725;SDS011;20951;50.818;4.344;2023-04-25T15:02:35;8.32;;;1.67;;
34725;SDS011;20951;50.818;4.344;2023-04-25T15:05:01;6.85;;;1.70;;
34725;SDS011;20951;50.818;4.344;2023-04-25T15:07:28;5.95;;;1.48;;
34725;SDS011;20951;50.818;4.344;2023-04-25T15:09:54;5.57;;;1.40;;
34725;SDS011;20951;50.818;4.344;2023-04-25T15:12:21;7.25;;;2.05;;
34725;SDS011;20951;50.818;4.344;2023-04-25T15:14:48;8.52;;;1.65;;
34725;SDS011;20951;50.818;4.344;2023-04-25T15:17:14;5.18;;;1.67;;
34725;SDS011;20951;50.818;4.344;2023-04-25T15:19:45;7.30;;;2.17;;
34725;SDS011;20951;50.818;4.344;2023-04-25T15:22:11;7.07;;;1.70;;